sensor_id;sensor_type;location;lat;lon;timestamp;P1;durP1;ratioP1;P2;durP2;ratioP2
24631;SDS011;59977;48.782;9.190;2022-10-31T20:26:04;23.70;;;8.02;;
24631;SDS011;59977;48.782;9.190;2022-10-31T20:28:30;24.52;;;8.23;;
24631;SDS011;59977;48.782;9.190;2022-10-31T20:30:57;21.15;;;9.25;;
24631;SDS011;59977;48.782;9.190;2022-10-31T20:33:24;21.10;;;8.32;;
24631;SDS011;59977;48.782;9.190;2022-10-31T20:35:50;20.23;;;8.57;;
24631;SDS011;59977;48.782;9.190;2022-10-31T20:38:15;23.15;;;8.82;;
24631;SDS011;59977;48.782;9.190;2022-10-31T20:40:41;26.50;;;9.13;;
24631;SDS011;59977;48.782;9.190;2022-10-31T20:43:07;25.15;;;8.88;;
24631;SDS011;59977;48.782;9.190;2022-10-31T20:45:35;22.88;;;8.93;;
24631;SDS011;59977;48.782;9.190;2022-10-31T20:48:01;20.13;;;9.43;;
24631;SDS011;59977;48.782;9.190;2022-10-31T20:50:27;33.47;;;10.85;;
24631;SDS011;59977;48.782;9.190;2022-10-31T20:52:52;27.25;;;10.68;;
24631;SDS011;59977;48.782;9.190;2022-10-31T20:55:18;22.90;;;11.30;;
24631;SDS011;59977;48.782;9.190;2022-10-31T20:57:44;28.45;;;10.60;;
24631;SDS011;59977;48.782;9.190;2022-10-31T21:00:10;24.00;;;10.70;;
24631;SDS011;59977;48.782;9.190;2022-10-31T21:02:40;32.92;;;10.55;;
24631;SDS011;59977;48.782;9.190;2022-10-31T21:05:07;25.00;;;9.63;;
24631;SDS011;59977;48.782;9.190;2022-10-31T21:07:34;26.40;;;9.65;;
24631;SDS011;59977;48.782;9.190;2022-10-31T21:09:59;29.17;;;9.20;;
24631;SDS011;59977;48.782;9.190;2022-10-31T21:12:25;27.38;;;10.43;;
24631;SDS011;59977;48.782;9.190;2022-10-31T21:14:51;27.05;;;10.15;;
24631;SDS011;59977;48.782;9.190;2022-10-31T21:17:17;26.90;;;11.00;;
24631;SDS011;59977;48.782;9.190;2022-10-31T21:19:42;33.00;;;11.75;;
24631;SDS011;59977;48.782;9.190;2022-10-31T21:22:08;30.00;;;11.98;;
24631;SDS011;59977;48.782;9.190;2022-10-31T21:24:33;31.45;;;13.23;;
24631;SDS011;59977;48.782;9.190;2022-10-31T21:26:59;27.80;;;12.50;;
24631;SDS011;59977;48.782;9.190;2022-10-31T21:29:24;25.17;;;11.48;;
24631;SDS011;59977;48.782;9.190;2022-10-31T21:31:50;29.90;;;11.80;;
24631;SDS011;59977;48.782;9.190;2022-10-31T21:34:15;25.85;;;11.63;;
24631;SDS011;59977;48.782;9.190;2022-10-31T21:36:41;37.22;;;13.57;;
24631;SDS011;59977;48.782;9.190;2022-10-31T21:39:07;41.75;;;13.00;;
24631;SDS011;59977;48.782;9.190;2022-10-31T21:41:33;30.20;;;13.18;;
24631;SDS011;59977;48.782;9.190;2022-10-31T21:43:59;30.00;;;13.82;;
24631;SDS011;59977;48.782;9.190;2022-10-31T21:46:26;30.05;;;13.75;;
24631;SDS011;59977;48.782;9.190;2022-10-31T21:48:56;31.60;;;13.85;;
24631;SDS011;59977;48.782;9.190;2022-10-31T21:51:23;37.42;;;13.40;;
24631;SDS011;59977;48.782;9.190;2022-10-31T21:53:53;26.77;;;11.43;;
24631;SDS011;59977;48.782;9.190;2022-10-31T21:56:38;32.95;;;10.93;;
24631;SDS011;59977;48.782;9.190;2022-10-31T21:59:04;25.73;;;10.65;;
24631;SDS011;59977;48.782;9.190;2022-10-31T22:01:30;29.25;;;10.80;;
24631;SDS011;59977;48.782;9.190;2022-10-31T22:03:57;22.77;;;10.13;;
24631;SDS011;59977;48.782;9.190;2022-10-31T22:06:23;26.58;;;11.35;;
24631;SDS011;59977;48.782;9.190;2022-10-31T22:08:59;23.73;;;10.50;;
24631;SDS011;59977;48.782;9.190;2022-10-31T22:11:25;27.25;;;10.38;;
24631;SDS011;59977;48.782;9.190;2022-10-31T22:13:52;24.33;;;10.73;;
24631;SDS011;59977;48.782;9.190;2022-10-31T22:16:19;28.58;;;11.60;;
24631;SDS011;59977;48.782;9.190;2022-10-31T22:18:46;23.92;;;10.85;;
24631;SDS011;59977;48.782;9.190;2022-10-31T22:21:13;23.05;;;10.90;;
24631;SDS011;59977;48.782;9.190;2022-10-31T22:23:42;33.95;;;12.02;;
24631;SDS011;59977;48.782;9.190;2022-10-31T22:28:39;30.63;;;12.57;;
24631;SDS011;59977;48.782;9.190;2022-10-31T22:31:06;30.05;;;13.27;;
24631;SDS011;59977;48.782;9.190;2022-10-31T22:33:32;33.95;;;11.85;;
24631;SDS011;59977;48.782;9.190;2022-10-31T22:36:01;28.33;;;11.68;;
24631;SDS011;59977;48.782;9.190;2022-10-31T22:38:29;29.20;;;11.48;;
24631;SDS011;59977;48.782;9.190;2022-10-31T22:40:58;24.33;;;11.77;;
24631;SDS011;59977;48.782;9.190;2022-10-31T22:43:24;25.73;;;11.55;;
24631;SDS011;59977;48.782;9.190;2022-10-31T22:45:54;29.67;;;12.43;;
24631;SDS011;59977;48.782;9.190;2022-10-31T22:48:26;31.95;;;11.80;;
24631;SDS011;59977;48.782;9.190;2022-10-31T22:50:52;29.45;;;11.00;;
24631;SDS011;59977;48.782;9.190;2022-10-31T22:53:18;25.08;;;10.80;;
24631;SDS011;59977;48.782;9.190;2022-10-31T22:55:44;24.92;;;10.48;;
24631;SDS011;59977;48.782;9.190;2022-10-31T22:58:09;22.17;;;10.30;;
24631;SDS011;59977;48.782;9.190;2022-10-31T23:00:35;27.58;;;10.07;;
24631;SDS011;59977;48.782;9.190;2022-10-31T23:03:00;25.45;;;11.20;;
24631;SDS011;59977;48.782;9.190;2022-10-31T23:05:26;27.45;;;10.25;;
24631;SDS011;59977;48.782;9.190;2022-10-31T23:07:52;22.75;;;9.63;;
24631;SDS011;59977;48.782;9.190;2022-10-31T23:10:17;22.58;;;9.70;;
24631;SDS011;59977;48.782;9.190;2022-10-31T23:12:43;19.27;;;7.63;;
24631;SDS011;59977;48.782;9.190;2022-10-31T23:15:27;23.83;;;8.88;;
24631;SDS011;59977;48.782;9.190;2022-10-31T23:17:55;24.10;;;8.57;;
24631;SDS011;59977;48.782;9.190;2022-10-31T23:20:21;23.58;;;9.05;;
24631;SDS011;59977;48.782;9.190;2022-10-31T23:22:46;18.20;;;9.35;;
24631;SDS011;59977;48.782;9.190;2022-10-31T23:25:12;24.25;;;9.85;;
24631;SDS011;59977;48.782;9.190;2022-10-31T23:27:56;33.05;;;12.15;;
24631;SDS011;59977;48.782;9.190;2022-10-31T23:30:21;28.10;;;11.25;;
24631;SDS011;59977;48.782;9.190;2022-10-31T23:32:47;24.05;;;8.75;;
24631;SDS011;59977;48.782;9.190;2022-10-31T23:35:12;25.60;;;9.98;;
24631;SDS011;59977;48.782;9.190;2022-10-31T23:37:38;20.95;;;8.77;;
24631;SDS011;59977;48.782;9.190;2022-10-31T23:40:04;25.95;;;8.98;;
24631;SDS011;59977;48.782;9.190;2022-10-31T23:42:32;23.30;;;8.40;;
24631;SDS011;59977;48.782;9.190;2022-10-31T23:44:58;23.02;;;9.60;;
24631;SDS011;59977;48.782;9.190;2022-10-31T23:47:23;27.50;;;9.05;;
24631;SDS011;59977;48.782;9.190;2022-10-31T23:49:49;25.27;;;10.70;;
24631;SDS011;59977;48.782;9.190;2022-10-31T23:52:15;23.55;;;9.75;;
24631;SDS011;59977;48.782;9.190;2022-10-31T23:54:41;35.05;;;12.98;;
24631;SDS011;59977;48.782;9.190;2022-10-31T23:57:08;44.25;;;22.50;;
24631;SDS011;59977;48.782;9.190;2022-10-31T23:59:34;34.95;;;15.93;;
